Time;durP1;ratioP1;P1;durP2;ratioP2;P2;SDS_P1;SDS_P2;PMS_P1;PMS_P2;Temp;Humidity;BMP_temperature;BMP_pressure;BME280_temperature;BME280_humidity;BME280_pressure;Samples;Min_cycle;Max_cycle;Signal;HPM_P1;HPM_P2
2022/03/18 00:00:18;;;;;;;14.50;4.90;;;7.60;81.90;;;;;;4972522;28;20472;-51
2022/03/18 00:02:45;;;;;;;8.20;4.67;;;7.60;79.40;;;;;;4976190;28;20469;-51
2022/03/18 00:05:12;;;;;;;7.07;4.57;;;7.60;82.70;;;;;;4972557;28;20460;-52
2022/03/18 00:07:40;;;;;;;6.60;5.00;;;7.60;80.70;;;;;;4973011;28;20461;-52
2022/03/18 00:10:08;;;;;;;8.47;4.83;;;7.60;79.00;;;;;;4976946;28;20484;-51
2022/03/18 00:12:34;;;;;;;10.00;5.80;;;7.60;77.40;;;;;;4972158;28;20474;-51
2022/03/18 00:15:02;;;;;;;10.97;4.93;;;7.50;75.20;;;;;;4982896;28;20517;-51
2022/03/18 00:17:29;;;;;;;11.33;4.87;;;7.50;69.30;;;;;;4987044;28;20465;-51
2022/03/18 00:19:56;;;;;;;10.93;4.70;;;7.40;72.10;;;;;;4988132;28;20967;-52
2022/03/18 00:22:22;;;;;;;9.57;5.17;;;7.50;71.60;;;;;;4985335;28;20893;-53
2022/03/18 00:24:49;;;;;;;12.63;5.13;;;7.40;70.40;;;;;;4969543;28;20477;-51
2022/03/18 00:27:16;;;;;;;12.70;4.30;;;7.50;69.10;;;;;;4973284;28;20462;-51
2022/03/18 00:29:42;;;;;;;12.30;5.70;;;7.40;71.00;;;;;;4971671;28;20493;-51
2022/03/18 00:32:11;;;;;;;8.13;5.17;;;7.40;75.60;;;;;;4972034;28;20464;-52
2022/03/18 00:34:37;;;;;;;6.87;4.23;;;7.50;72.50;;;;;;4970545;28;20524;-52
2022/03/18 00:37:04;;;;;;;10.50;4.90;;;7.50;72.80;;;;;;4973908;28;20901;-51
2022/03/18 00:39:31;;;;;;;15.50;6.33;;;7.50;73.20;;;;;;4970926;28;20548;-52
2022/03/18 00:41:58;;;;;;;8.40;4.40;;;7.50;74.30;;;;;;4971089;28;20457;-51
2022/03/18 00:44:25;;;;;;;13.20;4.93;;;7.50;75.60;;;;;;4969200;28;20517;-52
2022/03/18 00:46:52;;;;;;;7.17;4.77;;;7.40;77.00;;;;;;4972438;28;20453;-51
2022/03/18 00:52:06;;;;;;;7.20;4.90;;;7.50;78.50;;;;;;4971515;28;20493;-52
2022/03/18 00:54:34;;;;;;;14.40;4.40;;;7.40;78.40;;;;;;4967105;28;20461;-51
2022/03/18 00:57:01;;;;;;;11.97;5.10;;;7.40;80.50;;;;;;4970225;28;21191;-51
2022/03/18 00:59:28;;;;;;;14.73;4.97;;;7.40;84.30;;;;;;4970055;28;20493;-52
2022/03/18 01:01:56;;;;;;;9.00;4.30;;;7.40;87.20;;;;;;4969051;28;20469;-51
2022/03/18 01:04:25;;;;;;;27.93;4.70;;;7.40;89.20;;;;;;4970684;28;20469;-52
2022/03/18 01:06:53;;;;;;;5.67;4.17;;;7.40;88.00;;;;;;4970785;28;20462;-52
2022/03/18 01:09:21;;;;;;;8.60;4.77;;;7.40;92.00;;;;;;4973710;28;20509;-51
2022/03/18 01:11:49;;;;;;;12.70;4.17;;;7.40;94.10;;;;;;4969894;28;20489;-52
2022/03/18 01:14:16;;;;;;;5.47;3.70;;;7.40;96.80;;;;;;4966705;28;20505;-52
2022/03/18 01:16:43;;;;;;;7.43;4.17;;;7.30;99.90;;;;;;4969725;28;20541;-52
2022/03/18 01:19:09;;;;;;;9.70;4.63;;;7.40;99.90;;;;;;4971827;28;20903;-52
2022/03/18 01:21:37;;;;;;;7.50;3.80;;;7.40;99.90;;;;;;4970469;28;20465;-52
2022/03/18 01:24:05;;;;;;;9.93;4.30;;;7.30;99.90;;;;;;4971284;28;20523;-51
2022/03/18 01:26:32;;;;;;;8.17;4.17;;;7.30;99.90;;;;;;4970413;28;20452;-52
2022/03/18 01:28:58;;;;;;;10.73;4.27;;;7.30;99.90;;;;;;4970494;28;20481;-52
2022/03/18 01:31:26;;;;;;;7.93;4.17;;;7.30;99.90;;;;;;4971492;28;20469;-51
2022/03/18 01:33:53;;;;;;;8.63;4.17;;;7.30;99.90;;;;;;4972787;28;20489;-51
2022/03/18 01:36:19;;;;;;;11.00;3.90;;;7.30;99.90;;;;;;4973142;28;20494;-51
2022/03/18 01:38:47;;;;;;;12.27;3.93;;;7.30;99.90;;;;;;4971584;28;20485;-51
2022/03/18 01:41:14;;;;;;;10.43;3.90;;;7.30;99.90;;;;;;4970571;28;20481;-52
2022/03/18 01:43:42;;;;;;;7.00;3.37;;;7.30;99.90;;;;;;4984056;28;20524;-52
2022/03/18 01:46:09;;;;;;;11.70;3.23;;;7.30;99.90;;;;;;4969426;28;20457;-52
2022/03/18 01:48:36;;;;;;;12.10;4.40;;;7.30;99.90;;;;;;4971716;28;21045;-51
2022/03/18 01:51:04;;;;;;;13.30;4.47;;;7.30;99.90;;;;;;4972103;28;20516;-51
2022/03/18 01:53:31;;;;;;;8.40;3.53;;;7.30;99.90;;;;;;4970816;28;20496;-51
2022/03/18 01:55:59;;;;;;;11.80;5.00;;;7.30;99.90;;;;;;4967935;28;20544;-52
2022/03/18 01:58:25;;;;;;;7.27;3.20;;;7.30;99.90;;;;;;4969573;28;20493;-51
2022/03/18 02:00:52;;;;;;;20.00;5.30;;;7.30;99.90;;;;;;5002024;23;20495;-49
2022/03/18 02:03:18;;;;;;;16.07;4.00;;;7.30;99.90;;;;;;5003210;28;20464;-49
2022/03/18 02:05:45;;;;;;;3.93;3.30;;;7.20;99.90;;;;;;5009372;28;20464;-49
2022/03/18 02:08:15;;;;;;;7.03;3.20;;;7.20;99.90;;;;;;5011620;28;20467;-49
2022/03/18 02:10:42;;;;;;;9.47;4.00;;;7.20;99.90;;;;;;5004485;28;20523;-49
2022/03/18 02:13:10;;;;;;;8.53;3.50;;;7.30;99.90;;;;;;4996012;28;20449;-49
2022/03/18 02:15:37;;;;;;;15.47;4.07;;;7.30;99.90;;;;;;4992901;28;20938;-49
2022/03/18 02:18:05;;;;;;;14.40;4.00;;;7.30;99.90;;;;;;4992799;28;20507;-48
2022/03/18 02:20:32;;;;;;;10.03;3.43;;;7.30;99.90;;;;;;4996785;28;20490;-49
2022/03/18 02:23:00;;;;;;;9.07;3.87;;;7.20;99.90;;;;;;4995337;28;20460;-50
2022/03/18 02:25:27;;;;;;;7.73;3.20;;;7.30;99.90;;;;;;4991020;28;20518;-50
2022/03/18 02:27:55;;;;;;;8.40;3.37;;;7.30;99.90;;;;;;4994429;28;20460;-49
2022/03/18 02:30:22;;;;;;;7.20;3.17;;;7.30;99.90;;;;;;4991968;28;20542;-49
2022/03/18 02:32:48;;;;;;;11.20;3.23;;;7.30;99.90;;;;;;4994725;28;20468;-48
2022/03/18 02:35:15;;;;;;;14.67;3.63;;;7.20;99.90;;;;;;4992039;28;20460;-50
2022/03/18 02:37:42;;;;;;;13.83;4.53;;;7.20;99.90;;;;;;4986925;28;20492;-49
2022/03/18 02:40:11;;;;;;;8.80;4.27;;;7.20;99.90;;;;;;4991405;28;20539;-48
2022/03/18 02:42:37;;;;;;;7.70;3.20;;;7.20;99.90;;;;;;4989483;28;20806;-48
2022/03/18 02:45:05;;;;;;;8.27;3.80;;;7.20;99.90;;;;;;4991337;28;20953;-50
2022/03/18 02:47:31;;;;;;;15.10;3.93;;;7.20;99.90;;;;;;4992769;28;20507;-48
2022/03/18 02:49:58;;;;;;;10.43;3.73;;;7.20;99.90;;;;;;4994514;28;20480;-49
2022/03/18 02:52:24;;;;;;;12.87;3.83;;;7.20;99.90;;;;;;4992170;28;20970;-49
2022/03/18 02:54:51;;;;;;;10.87;3.67;;;7.20;99.90;;;;;;4990935;28;20539;-49
2022/03/18 02:57:19;;;;;;;9.83;3.33;;;7.10;99.90;;;;;;4991722;28;20495;-49
2022/03/18 02:59:46;;;;;;;8.93;3.40;;;7.20;99.90;;;;;;4996924;28;20530;-49
2022/03/18 03:02:14;;;;;;;8.73;4.23;;;7.20;99.90;;;;;;4991496;28;20487;-49
2022/03/18 03:07:59;;;;;;;8.00;3.50;;;7.10;99.90;;;;;;4994322;28;20837;-48
2022/03/18 03:10:12;;;;;;;12.23;4.27;;;7.10;99.90;;;;;;4987826;28;21092;-49
2022/03/18 03:12:40;;;;;;;17.27;3.30;;;7.10;99.90;;;;;;4995636;28;20482;-50
2022/03/18 03:15:08;;;;;;;11.80;4.17;;;7.10;99.90;;;;;;4991604;28;20965;-48
2022/03/18 03:17:35;;;;;;;8.60;3.30;;;7.10;99.90;;;;;;4995084;28;20530;-49
2022/03/18 03:20:02;;;;;;;15.20;3.73;;;7.10;99.90;;;;;;4991518;28;20527;-49
2022/03/18 03:22:30;;;;;;;22.23;5.00;;;7.10;99.90;;;;;;4992331;28;20463;-49
2022/03/18 03:24:57;;;;;;;18.80;3.10;;;7.10;99.90;;;;;;4993499;28;20518;-49
2022/03/18 03:27:29;;;;;;;13.17;4.10;;;7.10;99.90;;;;;;4988789;28;20460;-49
2022/03/18 03:29:58;;;;;;;16.07;3.63;;;7.00;99.90;;;;;;4988863;28;20480;-48
2022/03/18 03:32:25;;;;;;;13.97;3.60;;;7.00;99.90;;;;;;4989900;28;20461;-48
2022/03/18 03:34:52;;;;;;;7.37;3.00;;;7.00;99.90;;;;;;4991184;28;20527;-49
2022/03/18 03:37:18;;;;;;;12.97;2.87;;;7.00;99.90;;;;;;4991947;28;20480;-50
2022/03/18 03:39:45;;;;;;;9.63;3.40;;;7.00;99.90;;;;;;4990747;28;20476;-49
2022/03/18 03:42:12;;;;;;;31.87;4.10;;;7.00;99.90;;;;;;4992514;28;20962;-49
2022/03/18 03:44:38;;;;;;;13.40;3.87;;;6.90;99.90;;;;;;4992060;28;20499;-49
2022/03/18 03:47:07;;;;;;;11.60;3.13;;;6.90;99.90;;;;;;4992967;28;20515;-49
2022/03/18 03:49:33;;;;;;;13.77;3.30;;;6.90;99.90;;;;;;4992279;28;20484;-49
2022/03/18 03:52:00;;;;;;;8.53;3.10;;;6.80;99.90;;;;;;4987734;28;20469;-49
2022/03/18 03:54:27;;;;;;;9.53;2.43;;;6.80;99.90;;;;;;4993354;28;20810;-49
2022/03/18 03:56:54;;;;;;;9.23;3.70;;;6.80;99.90;;;;;;4984826;28;20476;-49
2022/03/18 03:59:21;;;;;;;12.67;3.37;;;6.70;99.90;;;;;;4987251;28;20464;-48
2022/03/18 04:01:48;;;;;;;11.13;3.00;;;6.70;99.90;;;;;;4989487;28;20961;-49
2022/03/18 04:04:16;;;;;;;10.20;2.90;;;6.60;99.90;;;;;;4991476;28;20456;-49
2022/03/18 04:06:43;;;;;;;11.67;3.77;;;6.60;99.90;;;;;;4990861;28;20859;-49
2022/03/18 04:09:10;;;;;;;15.03;3.70;;;6.50;99.90;;;;;;4992436;28;21150;-49
2022/03/18 04:11:36;;;;;;;9.60;3.07;;;6.50;99.90;;;;;;4990963;28;20500;-49
2022/03/18 04:14:03;;;;;;;11.37;3.10;;;6.40;99.90;;;;;;4991968;28;20460;-49
2022/03/18 04:16:29;;;;;;;11.17;3.30;;;6.40;99.90;;;;;;4992138;28;20531;-49
2022/03/18 04:18:56;;;;;;;10.67;2.90;;;6.40;99.90;;;;;;4993758;28;20449;-50
2022/03/18 04:21:24;;;;;;;15.37;3.80;;;6.30;99.90;;;;;;4993664;28;20985;-49
2022/03/18 04:23:51;;;;;;;11.60;3.20;;;6.30;99.90;;;;;;4993620;28;21000;-49
2022/03/18 04:26:18;;;;;;;10.67;3.13;;;6.30;99.90;;;;;;4990335;28;20461;-49
2022/03/18 04:28:44;;;;;;;14.50;4.03;;;6.30;99.90;;;;;;4992985;28;20461;-49
2022/03/18 04:31:11;;;;;;;9.63;3.70;;;6.20;99.90;;;;;;4995155;28;20472;-49
2022/03/18 04:33:38;;;;;;;12.57;4.10;;;6.10;99.90;;;;;;4992396;28;20449;-50
2022/03/18 04:36:05;;;;;;;12.30;3.20;;;6.10;99.90;;;;;;4993896;28;20485;-49
2022/03/18 04:38:33;;;;;;;12.80;3.47;;;6.00;99.90;;;;;;4993113;28;21218;-49
2022/03/18 04:40:59;;;;;;;13.37;3.03;;;6.00;99.90;;;;;;4989309;28;20531;-50
2022/03/18 04:43:26;;;;;;;9.03;2.63;;;5.90;99.90;;;;;;4992323;28;20468;-50
2022/03/18 04:45:53;;;;;;;9.27;3.40;;;5.90;99.90;;;;;;4996625;28;20513;-49
2022/03/18 04:48:20;;;;;;;12.00;3.97;;;5.80;99.90;;;;;;5001522;28;20463;-49
2022/03/18 04:50:46;;;;;;;12.13;3.03;;;5.80;99.90;;;;;;5011464;28;21004;-49
2022/03/18 04:53:13;;;;;;;14.90;3.20;;;5.70;99.90;;;;;;4993422;28;20526;-49
2022/03/18 04:55:41;;;;;;;15.83;3.87;;;5.60;99.90;;;;;;4991777;28;20575;-49
2022/03/18 04:58:08;;;;;;;16.70;4.03;;;5.60;99.90;;;;;;4992166;28;20484;-49
2022/03/18 05:00:35;;;;;;;10.67;3.37;;;5.50;99.90;;;;;;4992017;28;20496;-49
2022/03/18 05:03:02;;;;;;;12.57;3.23;;;5.50;99.90;;;;;;4992456;28;20472;-49
2022/03/18 05:05:29;;;;;;;12.90;3.60;;;5.40;99.90;;;;;;4991868;28;20511;-51
2022/03/18 05:07:56;;;;;;;9.50;3.57;;;5.30;99.90;;;;;;4989898;28;20448;-51
2022/03/18 05:10:23;;;;;;;8.17;3.07;;;5.20;99.90;;;;;;4985119;28;20489;-50
2022/03/18 05:12:52;;;;;;;19.50;4.10;;;5.20;99.90;;;;;;4986170;28;20536;-51
2022/03/18 05:15:19;;;;;;;15.63;3.40;;;5.10;99.90;;;;;;4987679;28;20483;-49
2022/03/18 05:17:50;;;;;;;9.67;3.07;;;5.00;99.90;;;;;;4985735;28;20485;-51
2022/03/18 05:20:18;;;;;;;17.17;3.40;;;4.90;99.90;;;;;;4988543;28;20491;-50
2022/03/18 05:22:45;;;;;;;10.60;3.23;;;4.90;99.90;;;;;;4987937;28;20461;-51
2022/03/18 05:25:12;;;;;;;15.10;4.67;;;4.90;99.90;;;;;;4994456;28;20519;-51
2022/03/18 05:27:41;;;;;;;13.33;3.20;;;4.80;99.90;;;;;;4991745;28;20518;-51
2022/03/18 05:30:11;;;;;;;13.57;4.17;;;4.70;99.90;;;;;;4992366;28;20558;-50
2022/03/18 05:32:37;;;;;;;14.10;2.67;;;4.70;99.90;;;;;;4988360;28;20460;-50
2022/03/18 05:35:05;;;;;;;16.37;4.00;;;4.60;99.90;;;;;;4991018;28;20445;-52
2022/03/18 05:37:32;;;;;;;17.13;3.30;;;4.50;99.90;;;;;;4990732;28;20480;-50
2022/03/18 05:39:58;;;;;;;14.67;3.00;;;4.50;99.90;;;;;;4991821;28;20485;-51
2022/03/18 05:42:26;;;;;;;12.90;3.42;;;4.50;99.90;;;;;;4978868;28;20519;-52
2022/03/18 05:44:53;;;;;;;14.20;3.67;;;4.40;99.90;;;;;;4990143;28;20232;-50
2022/03/18 05:47:21;;;;;;;10.43;3.40;;;4.40;99.90;;;;;;4983441;28;20464;-49
2022/03/18 05:49:48;;;;;;;16.00;4.03;;;4.40;99.90;;;;;;4986749;28;20485;-50
2022/03/18 05:52:15;;;;;;;14.07;7.80;;;4.40;99.90;;;;;;4988847;28;20457;-50
2022/03/18 05:54:41;;;;;;;10.87;4.07;;;4.40;99.90;;;;;;4987657;28;20518;-50
2022/03/18 05:57:07;;;;;;;15.83;4.10;;;4.40;99.90;;;;;;4993594;28;20484;-50
2022/03/18 05:59:36;;;;;;;14.00;3.40;;;4.50;99.90;;;;;;4990275;28;20485;-49
2022/03/18 06:02:04;;;;;;;12.40;3.53;;;4.60;99.90;;;;;;4992396;28;20259;-51
2022/03/18 06:04:32;;;;;;;11.37;4.23;;;4.60;99.90;;;;;;4995492;28;20460;-50
2022/03/18 06:06:59;;;;;;;14.20;4.50;;;4.70;99.90;;;;;;4997919;28;20515;-51
2022/03/18 06:12:10;;;;;;;30.13;13.20;;;4.90;99.90;;;;;;4995939;28;20451;-53
2022/03/18 06:14:37;;;;;;;23.63;11.27;;;5.00;99.90;;;;;;4993066;28;20453;-51
2022/03/18 06:17:05;;;;;;;13.23;5.10;;;4.90;99.90;;;;;;4992080;28;20554;-51
2022/03/18 06:19:34;;;;;;;17.23;3.67;;;4.90;99.90;;;;;;4992154;28;21045;-51
2022/03/18 06:22:01;;;;;;;20.60;5.20;;;5.00;99.90;;;;;;4994141;28;20520;-51
2022/03/18 06:24:29;;;;;;;13.00;4.27;;;5.00;99.90;;;;;;4986977;28;21155;-52
2022/03/18 06:26:56;;;;;;;22.10;4.07;;;5.00;99.90;;;;;;4989325;28;20503;-51
2022/03/18 06:29:23;;;;;;;10.43;4.70;;;5.10;99.90;;;;;;4991853;28;20448;-53
2022/03/18 06:31:50;;;;;;;20.37;4.23;;;5.20;99.90;;;;;;4980479;28;20449;-52
2022/03/18 06:34:17;;;;;;;22.43;12.70;;;5.30;99.90;;;;;;4990523;28;20523;-51
2022/03/18 06:36:46;;;;;;;19.70;6.07;;;5.30;99.90;;;;;;4992193;28;20464;-54
2022/03/18 06:39:12;;;;;;;14.53;7.37;;;5.10;99.90;;;;;;4989976;28;20490;-52
2022/03/18 06:41:39;;;;;;;24.97;12.20;;;5.10;99.90;;;;;;4992089;28;20464;-52
2022/03/18 06:44:08;;;;;;;110.27;59.23;;;5.20;99.90;;;;;;4990860;28;20946;-54
2022/03/18 06:46:35;;;;;;;64.97;41.63;;;5.30;99.90;;;;;;4991151;28;20973;-53
2022/03/18 06:49:02;;;;;;;19.30;10.13;;;5.40;99.90;;;;;;4991325;28;20471;-51
2022/03/18 06:51:29;;;;;;;23.63;4.90;;;5.50;99.90;;;;;;4989898;28;20480;-54
2022/03/18 06:53:57;;;;;;;14.97;4.20;;;5.60;99.90;;;;;;4989123;28;20464;-52
2022/03/18 06:56:25;;;;;;;13.90;4.07;;;5.50;99.90;;;;;;4995978;28;20456;-52
2022/03/18 06:58:52;;;;;;;9.40;3.80;;;5.60;99.90;;;;;;4995279;28;20571;-53
2022/03/18 07:01:19;;;;;;;13.20;4.10;;;5.60;99.90;;;;;;4994843;28;20481;-52
2022/03/18 07:03:46;;;;;;;19.20;5.13;;;5.60;99.90;;;;;;4995444;28;20453;-52
2022/03/18 07:06:13;;;;;;;18.40;3.60;;;5.80;99.90;;;;;;4995556;28;20523;-52
2022/03/18 07:08:39;;;;;;;10.73;3.50;;;5.80;99.90;;;;;;4993226;28;20453;-53
2022/03/18 07:11:07;;;;;;;17.70;4.37;;;5.90;99.90;;;;;;4984997;28;21236;-53
2022/03/18 07:13:34;;;;;;;12.17;4.23;;;5.90;99.90;;;;;;4994566;28;20491;-55
2022/03/18 07:18:42;;;;;;;21.63;4.20;;;6.10;99.90;;;;;;4991776;28;21013;-52
2022/03/18 07:21:08;;;;;;;14.93;3.97;;;6.20;99.90;;;;;;4991813;28;20476;-51
2022/03/18 07:23:35;;;;;;;13.70;3.30;;;6.30;99.90;;;;;;4992863;28;20514;-52
2022/03/18 07:26:02;;;;;;;21.47;4.90;;;6.50;99.90;;;;;;4991656;28;20523;-52
2022/03/18 07:28:29;;;;;;;9.30;3.10;;;6.50;99.90;;;;;;4996463;28;20942;-52
2022/03/18 07:30:56;;;;;;;10.70;3.57;;;6.80;99.90;;;;;;4992944;28;20468;-52
2022/03/18 07:33:23;;;;;;;11.10;3.40;;;7.00;96.70;;;;;;4999994;28;20538;-59
2022/03/18 07:35:49;;;;;;;10.90;3.47;;;7.20;26.50;;;;;;4995126;28;20453;-54
2022/03/18 07:38:16;;;;;;;13.53;3.40;;;7.30;32.90;;;;;;4995218;28;20488;-52
2022/03/18 07:40:43;;;;;;;21.17;4.37;;;7.50;38.00;;;;;;4992744;28;20827;-52
2022/03/18 07:43:10;;;;;;;11.70;3.70;;;7.80;48.60;;;;;;4994330;28;20535;-53
2022/03/18 07:45:39;;;;;;;22.60;4.30;;;8.00;58.60;;;;;;4994522;28;20457;-54
2022/03/18 07:48:09;;;;;;;11.87;4.00;;;8.10;68.40;;;;;;4993509;28;21209;-52
2022/03/18 07:50:37;;;;;;;12.70;2.93;;;8.10;66.30;;;;;;4992020;28;20986;-52
2022/03/18 07:53:06;;;;;;;10.30;3.77;;;8.00;66.10;;;;;;4992083;28;20469;-54
2022/03/18 07:55:35;;;;;;;16.07;3.50;;;8.30;71.20;;;;;;4993003;28;20811;-52
2022/03/18 07:58:02;;;;;;;14.63;3.40;;;8.70;79.20;;;;;;4993547;28;21011;-54
2022/03/18 08:00:29;;;;;;;10.63;3.37;;;8.80;95.00;;;;;;4994230;28;20484;-49
2022/03/18 08:02:57;;;;;;;11.83;3.00;;;9.10;95.70;;;;;;4994188;28;20624;-49
2022/03/18 08:05:24;;;;;;;15.90;3.57;;;9.00;99.90;;;;;;4990646;28;20861;-50
2022/03/18 08:07:50;;;;;;;14.23;4.23;;;9.20;99.90;;;;;;4993798;28;20495;-49
2022/03/18 08:10:18;;;;;;;11.30;3.07;;;9.50;99.90;;;;;;4993334;28;20653;-50
2022/03/18 08:12:46;;;;;;;12.60;3.80;;;9.80;99.90;;;;;;4991797;28;20996;-50
2022/03/18 08:15:14;;;;;;;19.70;7.87;;;10.00;99.90;;;;;;4994185;28;20449;-49
2022/03/18 08:17:42;;;;;;;11.67;4.57;;;9.90;99.90;;;;;;4993309;28;20515;-49
2022/03/18 08:20:12;;;;;;;11.03;3.10;;;10.00;99.90;;;;;;4992912;28;20469;-49
2022/03/18 08:22:40;;;;;;;16.43;4.60;;;10.20;99.90;;;;;;4990666;28;20583;-50
2022/03/18 08:25:08;;;;;;;18.80;7.10;;;10.20;99.90;;;;;;4992766;28;20452;-49
2022/03/18 08:27:34;;;;;;;20.03;6.30;;;10.20;99.90;;;;;;4994973;28;20457;-50
2022/03/18 08:30:04;;;;;;;15.00;4.10;;;10.20;99.90;;;;;;4992700;28;20523;-49
2022/03/18 08:32:31;;;;;;;14.40;3.57;;;10.00;99.90;;;;;;4993625;28;20448;-49
2022/03/18 08:34:59;;;;;;;24.00;6.80;;;10.50;99.90;;;;;;4993424;28;20503;-50
2022/03/18 08:40:09;;;;;;;15.43;5.80;;;10.80;99.90;;;;;;4991685;28;20480;-52
2022/03/18 08:42:36;;;;;;;14.60;5.03;;;10.70;99.90;;;;;;4992563;28;21007;-53
2022/03/18 08:45:03;;;;;;;15.97;4.30;;;11.00;99.90;;;;;;4989274;28;21432;-52
2022/03/18 08:47:30;;;;;;;13.67;5.20;;;11.10;99.90;;;;;;4983017;28;20483;-52
2022/03/18 08:49:57;;;;;;;10.77;4.43;;;11.40;99.90;;;;;;4991555;28;21006;-53
2022/03/18 08:52:23;;;;;;;23.30;5.20;;;11.50;99.90;;;;;;4987593;28;20894;-53
2022/03/18 08:54:51;;;;;;;24.93;5.30;;;10.90;99.90;;;;;;4988518;28;20468;-52
2022/03/18 08:57:18;;;;;;;11.47;4.17;;;11.50;99.90;;;;;;4990304;28;20453;-54
2022/03/18 08:59:44;;;;;;;16.23;9.40;;;11.90;99.90;;;;;;4990674;28;20597;-53
2022/03/18 09:02:11;;;;;;;19.87;4.50;;;12.20;99.90;;;;;;4988384;28;20452;-54
2022/03/18 09:04:38;;;;;;;15.70;3.90;;;12.50;99.90;;;;;;4990674;28;20874;-53
2022/03/18 09:07:05;;;;;;;16.77;4.30;;;13.20;99.90;;;;;;4986520;28;20461;-51
2022/03/18 09:09:33;;;;;;;11.93;4.70;;;13.10;99.90;;;;;;4998779;28;20538;-52
2022/03/18 09:12:01;;;;;;;11.03;3.93;;;13.50;99.90;;;;;;4995210;28;20468;-54
2022/03/18 09:14:28;;;;;;;12.40;3.93;;;13.80;99.90;;;;;;5000145;28;20505;-51
2022/03/18 09:16:54;;;;;;;13.23;4.07;;;13.30;99.90;;;;;;4990384;28;20455;-51
2022/03/18 09:19:23;;;;;;;14.43;4.50;;;14.60;99.90;;;;;;4990853;28;21008;-51
2022/03/18 09:21:50;;;;;;;13.23;3.23;;;14.20;99.90;;;;;;4986208;28;20452;-51
2022/03/18 09:24:16;;;;;;;15.80;3.60;;;14.20;99.90;;;;;;4990594;28;20461;-51
2022/03/18 09:26:43;;;;;;;15.03;3.43;;;14.30;99.90;;;;;;4988394;28;20475;-51
2022/03/18 09:29:12;;;;;;;13.97;3.73;;;14.10;99.90;;;;;;4993356;28;20503;-51
2022/03/18 09:31:38;;;;;;;14.67;3.77;;;14.80;99.90;;;;;;4992394;28;20934;-50
2022/03/18 09:34:05;;;;;;;15.13;4.40;;;14.90;99.90;;;;;;4991746;28;20453;-51
2022/03/18 09:36:32;;;;;;;15.70;3.17;;;14.50;99.90;;;;;;4986690;28;20472;-52
2022/03/18 09:38:58;;;;;;;11.87;4.13;;;14.60;99.90;;;;;;4990236;28;22122;-51
2022/03/18 09:41:25;;;;;;;9.83;3.23;;;14.10;99.90;;;;;;4991525;28;20534;-50
2022/03/18 09:43:52;;;;;;;19.07;3.40;;;14.20;99.90;;;;;;4984261;28;20476;-51
2022/03/18 09:46:21;;;;;;;11.80;3.43;;;14.60;99.90;;;;;;4990194;28;20479;-51
2022/03/18 09:48:48;;;;;;;14.00;3.57;;;15.60;99.90;;;;;;4987871;28;20969;-50
2022/03/18 09:51:15;;;;;;;10.87;2.90;;;15.30;99.90;;;;;;4990834;28;20472;-50
2022/03/18 09:53:41;;;;;;;7.50;3.67;;;14.90;99.90;;;;;;4989169;28;20874;-50
2022/03/18 09:56:08;;;;;;;16.50;3.37;;;15.20;99.90;;;;;;4989188;28;20465;-49
2022/03/18 09:58:35;;;;;;;11.00;2.80;;;15.20;99.90;;;;;;4989410;28;20913;-49
2022/03/18 10:01:02;;;;;;;10.77;3.00;;;15.20;99.90;;;;;;4990183;28;20547;-50
2022/03/18 10:03:38;;;;;;;14.67;4.00;;;14.90;99.90;;;;;;4986422;28;20515;-49
2022/03/18 10:06:06;;;;;;;5.43;2.53;;;15.30;99.90;;;;;;4994888;28;20452;-50
2022/03/18 10:08:49;;;;;;;15.97;6.67;;;15.60;99.90;;;;;;4990239;28;20515;-50
2022/03/18 10:11:17;;;;;;;10.13;5.77;;;14.60;99.90;;;;;;4986751;28;20526;-49
2022/03/18 10:13:52;;;;;;;9.27;3.90;;;15.10;99.90;;;;;;4990607;28;20556;-49
2022/03/18 10:16:33;;;;;;;12.63;3.40;;;15.90;99.90;;;;;;4988967;28;20460;-50
2022/03/18 10:19:02;;;;;;;6.80;3.00;;;15.20;99.90;;;;;;4989930;28;20482;-50
2022/03/18 10:21:29;;;;;;;10.53;3.33;;;15.00;99.90;;;;;;4991116;28;20950;-50
2022/03/18 10:24:11;;;;;;;13.80;3.40;;;14.80;99.90;;;;;;4990186;28;20531;-50
2022/03/18 10:26:39;;;;;;;7.10;3.80;;;15.80;99.90;;;;;;4984968;28;20464;-49
2022/03/18 10:29:11;;;;;;;13.00;4.50;;;15.20;99.90;;;;;;4993315;28;20444;-49
2022/03/18 10:31:39;;;;;;;10.83;3.33;;;15.50;99.90;;;;;;4993643;28;20977;-49
2022/03/18 10:37:08;;;;;;;8.73;2.77;;;16.50;99.90;;;;;;4995109;28;20548;-50
2022/03/18 10:39:36;;;;;;;11.43;3.53;;;16.20;99.90;;;;;;4991189;28;21156;-50
2022/03/18 10:42:04;;;;;;;10.50;3.77;;;16.50;99.90;;;;;;4990201;28;20485;-50
2022/03/18 10:44:43;;;;;;;7.20;2.80;;;16.20;99.90;;;;;;4994653;28;20515;-50
2022/03/18 10:47:23;;;;;;;11.23;3.53;;;15.70;99.90;;;;;;4995585;28;20926;-50
2022/03/18 10:49:51;;;;;;;6.87;2.33;;;15.00;99.90;;;;;;4992896;28;20497;-49
2022/03/18 10:52:23;;;;;;;10.50;4.17;;;14.90;99.90;;;;;;4993989;28;20449;-49
2022/03/18 10:54:50;;;;;;;9.97;3.20;;;15.20;99.90;;;;;;4995783;28;20437;-50
2022/03/18 10:57:18;;;;;;;15.80;2.87;;;14.90;99.90;;;;;;4992842;28;21183;-49
2022/03/18 10:59:44;;;;;;;8.20;2.50;;;15.40;99.90;;;;;;4991626;28;20492;-49
2022/03/18 11:02:15;;;;;;;9.30;3.30;;;15.10;99.90;;;;;;4994818;28;20950;-50
2022/03/18 11:04:42;;;;;;;7.37;3.27;;;15.60;99.90;;;;;;4994716;28;20535;-49
2022/03/18 11:12:44;;;;;;;9.63;3.10;;;14.50;99.90;;;;;;4993981;28;20675;-49
2022/03/18 11:15:11;;;;;;;12.40;4.40;;;13.60;99.90;;;;;;4994395;28;20460;-49
2022/03/18 11:17:40;;;;;;;7.70;2.77;;;13.90;99.90;;;;;;4994585;28;20938;-50
2022/03/18 11:20:08;;;;;;;7.70;2.10;;;13.80;99.90;;;;;;4995171;28;20510;-50
2022/03/18 11:22:36;;;;;;;9.60;2.77;;;14.20;99.90;;;;;;4995068;28;20452;-49
2022/03/18 11:25:06;;;;;;;6.47;2.40;;;14.90;99.90;;;;;;4994063;28;20472;-49
2022/03/18 11:27:36;;;;;;;7.63;3.63;;;14.90;99.90;;;;;;4993295;28;20552;-50
2022/03/18 11:30:20;;;;;;;5.60;2.70;;;14.50;99.90;;;;;;4993698;28;20460;-49
2022/03/18 11:33:18;;;;;;;7.37;3.00;;;14.40;99.90;;;;;;4975627;28;20445;-50
2022/03/18 11:36:05;;;;;;;7.10;2.47;;;14.00;99.90;;;;;;4986288;28;20440;-49
2022/03/18 11:38:51;;;;;;;9.50;2.70;;;13.90;99.90;;;;;;4990818;28;20954;-49
2022/03/18 11:41:19;;;;;;;5.97;2.10;;;14.00;99.90;;;;;;4974739;28;20827;-49
2022/03/18 11:43:51;;;;;;;9.67;2.37;;;13.60;99.90;;;;;;4988134;28;20450;-50
2022/03/18 11:46:25;;;;;;;5.77;2.13;;;13.60;99.90;;;;;;4991857;28;20484;-49
2022/03/18 11:48:53;;;;;;;4.87;1.97;;;13.90;99.90;;;;;;4994294;28;20444;-50
2022/03/18 11:51:24;;;;;;;7.43;2.67;;;13.90;99.90;;;;;;4993019;28;20487;-49
2022/03/18 11:53:54;;;;;;;8.33;2.33;;;13.60;99.90;;;;;;4994897;28;20544;-50
2022/03/18 11:56:22;;;;;;;14.23;2.10;;;14.20;99.90;;;;;;4994087;28;20555;-50
2022/03/18 11:58:49;;;;;;;11.77;3.00;;;14.50;99.90;;;;;;4994026;28;20456;-49
2022/03/18 12:01:41;;;;;;;5.00;1.70;;;14.10;99.90;;;;;;4993542;28;20488;-50
2022/03/18 12:04:08;;;;;;;6.37;2.27;;;14.20;99.90;;;;;;4987319;28;20503;-50
2022/03/18 12:07:30;;;;;;;5.67;2.13;;;14.00;99.90;;;;;;4993158;28;20465;-49
2022/03/18 12:09:59;;;;;;;5.80;2.67;;;14.20;99.90;;;;;;4951061;28;20478;-49
2022/03/18 12:12:29;;;;;;;8.40;2.20;;;14.10;99.90;;;;;;4946763;28;20469;-50
2022/03/18 12:14:57;;;;;;;6.63;1.87;;;14.60;99.90;;;;;;4968288;28;20481;-50
2022/03/18 12:17:24;;;;;;;4.93;2.00;;;14.50;99.90;;;;;;4988755;28;20534;-48
2022/03/18 12:19:52;;;;;;;7.50;2.10;;;14.10;99.90;;;;;;4991769;28;20493;-50
2022/03/18 12:22:20;;;;;;;5.13;1.67;;;14.50;99.90;;;;;;4993104;28;21161;-49
2022/03/18 12:24:57;;;;;;;5.13;1.67;;;15.30;99.90;;;;;;4991368;28;20479;-50
2022/03/18 12:27:29;;;;;;;5.63;2.30;;;15.00;99.90;;;;;;4992934;28;20467;-50
2022/03/18 12:29:59;;;;;;;6.10;2.20;;;15.00;99.90;;;;;;4988254;28;20507;-49
2022/03/18 12:32:26;;;;;;;6.20;2.33;;;14.60;99.90;;;;;;4987735;28;20511;-49
2022/03/18 12:34:55;;;;;;;7.70;2.70;;;14.50;99.90;;;;;;4992206;28;20445;-49
2022/03/18 12:37:23;;;;;;;4.40;2.00;;;15.30;99.90;;;;;;4989056;28;20441;-49
2022/03/18 12:40:01;;;;;;;9.10;2.20;;;15.10;99.90;;;;;;4991573;28;20500;-49
2022/03/18 12:42:30;;;;;;;7.30;1.93;;;15.10;99.90;;;;;;4991806;28;20456;-50
2022/03/18 12:44:59;;;;;;;4.40;1.63;;;15.00;99.90;;;;;;4988830;28;20950;-49
2022/03/18 12:47:29;;;;;;;8.63;3.10;;;15.20;99.90;;;;;;4983878;28;21072;-49
2022/03/18 12:49:56;;;;;;;5.97;2.20;;;15.10;99.90;;;;;;4990399;28;20472;-49
2022/03/18 12:52:23;;;;;;;7.90;3.60;;;15.10;99.90;;;;;;4987619;28;20464;-49
2022/03/18 12:55:07;;;;;;;8.40;2.30;;;15.40;99.90;;;;;;4989742;28;20487;-50
2022/03/18 12:57:37;;;;;;;5.00;2.57;;;15.50;99.90;;;;;;4987865;28;20600;-50
2022/03/18 13:00:05;;;;;;;7.20;1.83;;;15.10;99.90;;;;;;4990278;28;20488;-49
2022/03/18 13:02:34;;;;;;;4.83;1.80;;;15.80;99.90;;;;;;4990620;28;20470;-50
2022/03/18 13:05:02;;;;;;;5.23;1.50;;;15.30;99.90;;;;;;4991330;28;20491;-49
2022/03/18 13:07:29;;;;;;;3.33;1.63;;;16.00;99.90;;;;;;4989793;28;20501;-49
2022/03/18 13:09:56;;;;;;;5.77;1.33;;;16.70;99.90;;;;;;4989662;28;20551;-49
2022/03/18 13:12:24;;;;;;;4.60;1.83;;;16.90;99.90;;;;;;4992302;28;20465;-50